Latest Weather Observations for Trangie

IDN60801

Issued at 11:32 am EST Monday 27 April 2015 (issued every 30 minutes, with the page automatically refreshed every 10 minutes)

About weather observations | Map of weather stations | Latest weather observations for NSW | Other Formats
Station Details ID: 051049 Name: TRANGIE RESEARCH STATION AWS Lat: -31.99 Lon: 147.95 Height: 215.0 m
Data from the previous 72 hours. | See also: Recent months at Trangie
Date/Time
EST
Temp
°C
App
Temp
°C
Dew
Point
Rel
Hum
%
Delta-T
°C
Wind Press
QNH
hPa
Press
MSL
hPa
Rain
since 9 am
mm
Dir
 
Spd
km/h
Gust
km/h
Spd
kts
Gust
kts
27/11:30am 15.0 9.4 5.5 53 4.5 SE 24 35 13 19 1022.5 1022.1 0.0
27/11:00am 14.2 8.3 5.6 56 4.1 SSE 26 37 14 20 1022.7 1022.3 0.0
27/10:30am 13.9 9.2 6.0 59 3.8 SSE 20 32 11 17 1022.8 1022.4 0.0
27/10:00am 13.2 8.2 6.5 64 3.2 S 22 33 12 18 1022.9 1022.5 0.0
27/09:30am 12.5 7.9 6.5 67 2.9 S 20 28 11 15 1022.8 1022.4 0.0
27/09:00am 12.0 7.4 6.5 69 2.6 S 20 28 11 15 1022.8 1022.4 0.0
27/08:30am 11.3 6.3 6.6 73 2.2 SSW 22 30 12 16 1022.6 1022.2 0.0
27/08:00am 10.2 5.9 7.1 81 1.5 SSW 19 24 10 13 1022.4 1022.0 0.0
27/07:30am 9.2 6.1 7.3 88 0.9 SW 13 17 7 9 1022.2 1021.8 0.0
27/07:00am 7.0 4.3 5.6 91 0.6 SW 9 11 5 6 1021.6 1021.1 0.0
27/06:30am 7.6 4.6 6.1 90 0.7 SW 11 15 6 8 1021.4 1020.9 0.0
27/06:00am 7.3 4.6 5.8 90 0.7 SW 9 13 5 7 1021.2 1020.7 0.0
27/05:30am 7.9 4.9 6.2 89 0.8 SW 11 13 6 7 1021.0 1020.5 0.0
27/05:00am 8.1 5.1 5.9 86 1.0 WSW 11 13 6 7 1020.8 1020.3 0.0
27/04:30am 9.5 6.2 6.2 80 1.5 SW 13 15 7 8 1020.6 1020.1 0.0
27/04:00am 10.9 7.3 6.6 75 2.0 SSW 15 20 8 11 1020.4 1019.9 0.0
27/03:30am 11.2 7.9 6.3 72 2.3 SSW 13 20 7 11 1020.1 1019.6 0.0
27/03:00am 11.3 8.5 6.8 74 2.2 SW 11 15 6 8 1020.1 1019.6 0.0
27/02:30am 11.3 8.6 7.2 76 2.0 SW 11 15 6 8 1020.2 1019.7 0.0
27/02:00am 10.8 7.6 6.9 77 1.9 SW 13 19 7 10 1020.2 1019.7 0.0
27/01:30am 10.6 7.1 7.1 79 1.7 SW 15 20 8 11 1020.2 1019.7 0.0
27/01:00am 10.5 6.6 7.2 80 1.6 SW 17 20 9 11 1020.2 1019.7 0.0
27/12:30am 10.9 7.1 7.4 79 1.7 SW 17 20 9 11 1020.4 1019.9 0.0
27/12:00am 10.5 6.2 7.2 80 1.6 SW 19 24 10 13 1020.6 1020.1 0.0
 
Date/Time
EST
Temp
°C
App
Temp
°C
Dew
Point
Rel
Hum
%
Delta-T
°C
Wind Press
QNH
hPa
Press
MSL
hPa
Rain
since 9 am
mm
Dir
 
Spd
km/h
Gust
km/h
Spd
kts
Gust
kts
26/11:30pm 10.5 6.2 7.2 80 1.6 SW 19 22 10 12 1020.5 1020.0 0.0
26/11:00pm 10.7 6.8 7.0 78 1.8 WSW 17 20 9 11 1020.5 1020.0 0.0
26/10:30pm 11.4 7.5 6.9 74 2.2 WSW 17 20 9 11 1020.8 1020.3 0.0
26/10:00pm 12.4 8.5 7.1 70 2.6 WSW 17 20 9 11 1020.8 1020.3 0.0
26/09:30pm 13.2 8.8 7.2 67 2.9 SW 20 26 11 14 1020.6 1020.1 0.0
26/09:00pm 13.5 9.1 7.3 66 3.0 SW 20 28 11 15 1020.4 1019.9 0.0
26/08:30pm 13.7 9.0 7.7 67 3.0 SW 22 28 12 15 1020.2 1019.7 0.0
26/08:00pm 14.2 9.9 7.9 66 3.2 SW 20 26 11 14 1020.0 1019.5 0.0
26/07:30pm 14.6 10.3 7.9 64 3.4 WSW 20 26 11 14 1019.8 1019.3 0.0
26/07:00pm 14.8 10.1 7.8 63 3.5 SW 22 32 12 17 1019.6 1019.1 0.0
26/06:30pm 14.9 10.9 8.4 65 3.3 SW 19 24 10 13 1019.2 1018.7 0.0
26/06:00pm 15.1 12.4 8.8 66 3.2 SW 13 17 7 9 1018.7 1018.2 0.0
26/05:30pm 15.4 12.0 9.1 66 3.3 SW 17 20 9 11 1018.0 1017.6 0.0
26/05:00pm 15.7 11.8 8.7 63 3.6 SW 19 28 10 15 1017.8 1017.3 0.0
26/04:30pm 15.9 11.9 9.1 64 3.5 SW 20 30 11 16 1017.6 1017.1 0.0
26/04:00pm 15.4 10.7 9.1 66 3.3 SW 24 32 13 17 1017.4 1016.9 0.0
26/03:30pm 15.6 10.3 9.9 69 3.0 SW 28 35 15 19 1017.2 1016.7 0.0
26/03:00pm 15.6 10.0 10.2 70 2.9 SW 30 39 16 21 1017.0 1016.5 0.0
26/02:30pm 15.7 10.1 10.0 69 3.0 SW 30 39 16 21 1016.7 1016.2 0.0
26/02:00pm 15.2 8.9 9.6 69 2.9 SW 33 44 18 24 1016.4 1015.9 0.0
26/01:30pm 15.2 8.9 9.8 70 2.8 SW 33 43 18 23 1016.3 1015.8 0.0
26/01:00pm 14.8 9.0 9.6 71 2.7 SW 30 39 16 21 1016.4 1015.9 0.0
26/12:30pm 14.8 9.6 10.2 74 2.4 WSW 28 35 15 19 1016.5 1016.0 0.0
26/12:00pm 14.0 8.8 10.2 78 2.0 WSW 28 39 15 21 1016.6 1016.1 0.0
26/11:30am 13.8 8.6 10.2 79 1.9 SW 28 37 15 20 1016.7 1016.2 0.0
26/11:00am 13.2 7.5 9.8 80 1.8 WSW 30 41 16 22 1016.8 1016.3 0.0
26/10:30am 12.7 8.7 10.6 87 1.1 SW 22 30 12 16 1016.7 1016.2 0.0
26/10:00am 11.8 7.3 10.0 89 0.9 WSW 24 33 13 18 1016.8 1016.3 0.0
26/09:30am 11.2 6.6 9.6 90 0.8 WSW 24 30 13 16 1016.6 1016.1 0.0
26/09:00am 10.9 6.6 9.3 90 0.8 WSW 22 32 12 17 1016.3 1015.8 0.2
26/08:30am 10.1 4.9 8.9 92 0.6 WSW 26 30 14 16 1016.0 1015.5 0.2
26/08:00am 9.8 5.8 9.0 95 0.4 WSW 20 26 11 14 1015.7 1015.2 0.2
26/07:30am 9.3 6.5 8.5 95 0.4 W 13 17 7 9 1015.0 1014.5 0.2
26/07:00am 8.9 4.4 8.6 98 0.1 WSW 22 33 12 18 1014.9 1014.4 0.2
26/06:30am 7.8 5.6 7.7 99 0.0 WNW 9 11 5 6 1014.4 1013.9 0.2
26/06:00am 8.1 5.5 7.8 98 0.1 WNW 11 15 6 8 1013.8 1013.2 0.2
26/05:30am 8.4 5.5 8.0 97 0.2 W 13 17 7 9 1013.8 1013.2 0.2
26/05:00am 8.7 5.8 8.1 96 0.3 W 13 17 7 9 1013.5 1012.9 0.0
26/04:30am 9.3 5.4 8.5 95 0.4 WSW 19 26 10 14 1013.1 1012.6 0.0
26/04:00am 10.0 6.0 8.9 93 0.5 WSW 20 32 11 17 1012.9 1012.4 0.0
26/03:30am 10.2 6.3 9.3 94 0.5 WSW 20 26 11 14 1012.6 1012.1 0.0
26/03:00am 10.1 6.4 9.5 96 0.3 WSW 19 26 10 14 1012.3 1011.8 0.0
26/02:30am 9.5 6.8 9.0 97 0.2 W 13 17 7 9 1012.3 1011.8 0.0
26/02:00am 9.4 6.6 8.6 95 0.4 W 13 17 7 9 1012.3 1011.8 0.0
26/01:30am 9.8 6.3 8.9 94 0.4 WSW 17 20 9 11 1012.3 1011.8 0.0
26/01:00am 10.0 6.5 8.8 92 0.6 SW 17 20 9 11 1012.4 1011.9 0.0
26/12:30am 10.2 6.3 8.8 91 0.7 SW 19 24 10 13 1012.3 1011.8 0.0
26/12:00am 10.3 6.8 8.7 90 0.8 SW 17 26 9 14 1012.2 1011.7 0.0
 
Date/Time
EST
Temp
°C
App
Temp
°C
Dew
Point
Rel
Hum
%
Delta-T
°C
Wind Press
QNH
hPa
Press
MSL
hPa
Rain
since 9 am
mm
Dir
 
Spd
km/h
Gust
km/h
Spd
kts
Gust
kts
25/11:30pm 10.4 7.8 9.3 93 0.6 SW 13 20 7 11 1012.0 1011.5 0.0
25/11:00pm 10.1 7.8 8.9 92 0.6 W 11 13 6 7 1011.8 1011.3 0.0
25/10:30pm 10.4 8.4 8.7 89 0.8 WNW 9 13 5 7 1011.6 1011.1 0.0
25/10:00pm 10.6 9.0 8.7 88 0.9 NW 7 9 4 5 1011.6 1011.1 0.0
25/09:30pm 10.9 9.2 8.3 84 1.3 W 7 11 4 6 1011.3 1010.8 0.0
25/09:00pm 11.4 7.3 7.7 78 1.8 WSW 19 24 10 13 1011.5 1011.0 0.0
25/08:30pm 11.3 6.1 7.4 77 1.9 WSW 24 35 13 19 1011.6 1011.1 0.0
25/08:00pm 11.9 4.6 7.0 72 2.4 WSW 35 48 19 26 1011.1 1010.6 0.0
25/07:47pm 12.5 4.0 7.0 69 2.7 WSW 41 57 22 31 1011.0 1010.5 0.0
25/07:41pm 12.8 3.7 6.6 66 3.0 W 44 65 24 35 1010.9 1010.4 0.0
25/07:30pm 14.2 9.0 7.3 63 3.4 WNW 24 61 13 33 1010.4 1009.9 0.0
25/07:29pm 14.6 10.2 7.6 63 3.5 WNW 20 61 11 33 1010.3 1009.8 0.0
25/07:00pm 13.8 11.6 8.0 68 2.9 NW 9 11 5 6 1009.4 1008.8 0.0
25/06:30pm 14.8 10.5 7.8 63 3.5 NW 20 28 11 15 1009.2 1008.6 0.0
25/06:05pm 17.1 10.7 5.4 46 5.7 W 28 46 15 25 1008.1 1007.6 0.0
25/06:00pm 17.5 12.7 5.4 45 5.9 W 20 30 11 16 1008.0 1007.5 0.0
25/05:30pm 18.0 13.6 4.9 42 6.4 WNW 17 22 9 12 1007.5 1007.0 0.0
25/05:00pm 18.3 11.7 4.1 39 6.8 WNW 28 39 15 21 1007.2 1006.7 0.0
25/04:30pm 19.7 13.3 5.4 39 7.1 WNW 28 37 15 20 1007.0 1006.5 0.0
25/04:00pm 20.4 14.5 5.6 38 7.4 WNW 26 35 14 19 1006.8 1006.3 0.0
25/03:30pm 20.3 14.7 5.5 38 7.4 NW 24 32 13 17 1006.8 1006.3 0.0
25/03:00pm 21.4 16.7 7.6 41 7.2 NW 22 35 12 19 1006.7 1006.2 0.0
25/02:30pm 21.0 16.1 8.3 44 6.7 NW 24 33 13 18 1006.9 1006.4 0.0
25/02:00pm 21.9 18.2 10.1 47 6.5 NW 20 30 11 16 1006.9 1006.4 0.0
25/01:30pm 21.1 16.6 10.0 49 6.1 WNW 24 35 13 19 1007.1 1006.6 0.0
25/01:00pm 21.0 16.0 9.6 48 6.2 WNW 26 39 14 21 1007.3 1006.8 0.0
25/12:30pm 20.4 16.3 11.6 57 4.9 WNW 24 33 13 18 1007.7 1007.2 0.0
25/12:00pm 21.4 17.4 10.6 50 6.0 NW 22 35 12 19 1007.7 1007.2 0.0
25/11:30am 21.0 18.9 11.1 53 5.5 NW 13 19 7 10 1008.0 1007.5 0.0
25/11:00am 20.7 18.2 11.1 54 5.3 NW 15 20 8 11 1008.5 1007.9 0.0
25/10:30am 19.6 16.8 10.0 54 5.2 NNW 15 20 8 11 1008.7 1008.1 0.0
25/10:00am 19.2 17.4 12.2 64 3.9 NNW 13 17 7 9 1008.8 1008.2 0.0
25/09:30am 17.9 15.9 11.5 66 3.5 NNW 13 17 7 9 1009.1 1008.5 0.0
25/09:00am 16.8 14.7 11.1 69 3.1 N 13 15 7 8 1009.1 1008.5 0.0
25/08:30am 15.9 14.6 11.3 74 2.5 N 9 13 5 7 1009.2 1008.6 0.0
25/08:00am 15.1 13.4 11.1 77 2.2 N 11 15 6 8 1009.0 1008.4 0.0
25/07:30am 13.6 11.7 10.6 82 1.6 NNE 11 15 6 8 1008.8 1008.2 0.0
25/07:00am 12.5 10.6 10.4 87 1.1 NNE 11 13 6 7 1008.7 1008.1 0.0
25/06:30am 11.9 10.5 9.6 86 1.2 NNE 7 11 4 6 1008.3 1007.8 0.0
25/06:00am 12.2 10.5 9.8 85 1.2 NNE 9 13 5 7 1008.1 1007.6 0.0
25/05:30am 12.6 10.6 10.1 85 1.3 NE 11 15 6 8 1008.1 1007.6 0.0
25/05:00am 12.5 10.4 9.9 84 1.3 NE 11 15 6 8 1008.0 1007.5 0.0
25/04:30am 12.4 10.7 9.8 84 1.3 NE 9 11 5 6 1008.0 1007.5 0.0
25/04:00am 12.5 10.5 10.2 86 1.2 NE 11 13 6 7 1007.9 1007.4 0.0
25/03:30am 12.2 10.8 9.6 84 1.3 NNE 7 9 4 5 1008.0 1007.5 0.0
25/03:00am 12.6 11.0 10.1 85 1.3 NNE 9 11 5 6 1008.0 1007.5 0.0
25/02:30am 11.5 10.2 9.9 90 0.8 NNE 7 9 4 5 1008.3 1007.8 0.0
25/02:00am 11.9 10.8 10.0 88 1.0 NE 6 6 3 3 1008.7 1008.1 0.0
25/01:30am 12.4 11.2 10.3 87 1.1 NNE 7 9 4 5 1009.0 1008.4 0.0
25/01:00am 13.3 12.4 10.7 84 1.4 NNE 6 7 3 4 1009.3 1008.7 0.0
25/12:30am 13.9 12.6 10.1 78 2.0 N 7 9 4 5 1009.5 1008.9 0.0
25/12:00am 14.0 13.0 10.2 78 2.0 N 6 7 3 4 1009.7 1009.1 0.0
 
Date/Time
EST
Temp
°C
App
Temp
°C
Dew
Point
Rel
Hum
%
Delta-T
°C
Wind Press
QNH
hPa
Press
MSL
hPa
Rain
since 9 am
mm
Dir
 
Spd
km/h
Gust
km/h
Spd
kts
Gust
kts
24/11:30pm 14.2 12.9 10.0 76 2.2 N 7 9 4 5 1009.8 1009.2 0.0
24/11:00pm 14.8 13.7 10.6 76 2.2 N 7 9 4 5 1009.7 1009.1 0.0
24/10:30pm 14.9 14.2 11.3 79 1.9 NNE 6 7 3 4 1009.8 1009.2 0.0
24/10:00pm 15.3 15.7 11.1 76 2.3 CALM 0 0 0 0 1009.7 1009.1 0.0
24/09:30pm 16.1 16.3 10.6 70 2.9 CALM 0 0 0 0 1009.7 1009.1 0.0
24/09:00pm 16.4 16.6 10.7 69 3.1 CALM 0 0 0 0 1009.7 1009.1 0.0
24/08:30pm 16.6 17.1 11.5 72 2.8 CALM 0 0 0 0 1009.5 1008.9 0.0
24/08:00pm 17.0 17.2 10.6 66 3.5 CALM 0 0 0 0 1009.5 1008.9 0.0
24/07:30pm 17.1 17.5 11.4 69 3.1 CALM 0 0 0 0 1009.3 1008.7 0.0
24/07:00pm 17.2 16.4 11.2 68 3.3 W 6 7 3 4 1009.2 1008.6 0.0
24/06:30pm 17.2 16.3 11.5 69 3.1 WNW 7 9 4 5 1008.9 1008.3 0.0
24/06:00pm 17.7 16.2 10.6 63 3.9 WNW 9 11 5 6 1008.6 1008.0 0.0
24/05:30pm 19.7 17.2 9.6 52 5.4 WNW 13 15 7 8 1008.2 1007.7 0.0
24/05:00pm 21.5 17.4 8.7 44 6.8 WNW 20 28 11 15 1007.9 1007.4 0.0
24/04:30pm 22.2 18.3 9.4 44 6.9 W 20 26 11 14 1007.8 1007.3 0.0
24/04:00pm 22.7 19.1 8.4 40 7.7 WNW 17 24 9 13 1007.7 1007.2 0.0
24/03:30pm 23.0 19.1 8.7 40 7.7 WNW 19 26 10 14 1007.7 1007.2 0.0
24/03:00pm 22.7 18.5 8.4 40 7.7 WNW 20 32 11 17 1007.8 1007.3 0.0
24/02:30pm 22.4 19.0 9.2 43 7.1 WNW 17 28 9 15 1008.0 1007.5 0.0
24/02:00pm 22.7 19.1 10.5 46 6.8 WNW 20 32 11 17 1008.1 1007.6 0.0
24/01:30pm 21.9 17.9 10.4 48 6.3 WNW 22 32 12 17 1008.3 1007.8 0.0
24/01:00pm 22.4 18.7 11.5 50 6.2 NW 22 32 12 17 1008.7 1008.1 0.0
24/12:30pm 21.3 18.1 11.3 53 5.6 WNW 19 24 10 13 1009.0 1008.4 0.0
24/12:00pm 22.2 20.5 12.5 54 5.6 WNW 13 20 7 11 1009.6 1009.0 0.0

Other Formats:

Comma delimited format used in spreadsheet applications
http://www.bom.gov.au/fwo/IDN60801/IDN60801.95710.axf

JavaScript Object Notation format (JSON) in row-major order
http://www.bom.gov.au/fwo/IDN60801/IDN60801.95710.json